Time;durP1;ratioP1;P1;durP2;ratioP2;P2;SDS_P1;SDS_P2;PMS_P1;PMS_P2;Temp;Humidity;BMP_temperature;BMP_pressure;BME280_temperature;BME280_humidity;BME280_pressure;Samples;Min_cycle;Max_cycle;Signal;HPM_P1;HPM_P2
2022/12/12 00:00:23;;;;;;;;;41.00;33.25;;;;;0.67;70.51;100078.88;5055127;28;46354;-73
2022/12/12 00:02:49;;;;;;;;;41.75;37.50;;;;;0.68;70.36;100077.19;5055415;28;45232;-73
2022/12/12 00:05:16;;;;;;;;;36.50;36.50;;;;;0.65;70.06;100072.88;5055442;28;45558;-74
2022/12/12 00:07:42;;;;;;;;;40.25;38.75;;;;;0.62;70.20;100070.31;5055904;28;45479;-74
2022/12/12 00:10:08;;;;;;;;;34.50;33.00;;;;;0.64;70.42;100073.75;5056105;28;46033;-73
2022/12/12 00:12:34;;;;;;;;;33.00;32.25;;;;;0.63;70.65;100072.03;5058075;28;45333;-72
2022/12/12 00:14:59;;;;;;;;;39.75;34.75;;;;;0.62;70.18;100065.13;5058211;28;45244;-73
2022/12/12 00:17:24;;;;;;;;;34.75;30.50;;;;;0.61;70.28;100078.94;5062166;28;45675;-72
2022/12/12 00:19:50;;;;;;;;;34.25;33.00;;;;;0.57;70.48;100070.34;5060740;28;46044;-72
2022/12/12 00:22:15;;;;;;;;;30.50;28.50;;;;;0.53;70.17;100073.84;5059447;28;45437;-70
2022/12/12 00:24:41;;;;;;;;;27.75;27.75;;;;;0.50;70.44;100073.81;5059054;28;45588;-74
2022/12/12 00:27:06;;;;;;;;;34.25;32.75;;;;;0.36;70.10;100070.47;5057206;28;45605;-73
2022/12/12 00:29:32;;;;;;;;;36.25;34.50;;;;;0.32;70.28;100063.59;5058773;28;45383;-74
2022/12/12 00:31:57;;;;;;;;;37.25;33.25;;;;;0.40;70.74;100080.81;5057663;28;45240;-71
2022/12/12 00:34:23;;;;;;;;;36.00;34.00;;;;;0.40;70.86;100085.09;5061596;28;45909;-73
2022/12/12 00:36:50;;;;;;;;;37.50;34.75;;;;;0.35;70.52;100073.94;5063889;28;45364;-72
2022/12/12 00:39:16;;;;;;;;;38.25;31.50;;;;;0.36;70.79;100083.41;5060714;28;47006;-72
2022/12/12 00:41:41;;;;;;;;;39.50;34.25;;;;;0.39;70.95;100094.63;5064175;28;44852;-76
2022/12/12 00:44:06;;;;;;;;;35.75;34.75;;;;;0.42;71.07;100083.38;5062779;28;46160;-71
2022/12/12 00:46:33;;;;;;;;;35.75;30.75;;;;;0.43;71.27;100096.31;5059016;28;45327;-72
2022/12/12 00:48:58;;;;;;;;;36.75;36.75;;;;;0.47;71.30;100101.47;5058144;28;46259;-71
2022/12/12 00:51:27;;;;;;;;;27.25;27.25;;;;;0.41;71.14;100095.47;5058001;28;45391;-72
2022/12/12 00:53:52;;;;;;;;;34.75;29.75;;;;;0.45;71.35;100108.38;5058800;28;45182;-76
2022/12/12 00:56:20;;;;;;;;;27.00;27.00;;;;;0.42;71.08;100097.19;5058568;28;45299;-77
2022/12/12 00:58:46;;;;;;;;;33.75;32.75;;;;;0.41;70.93;100092.88;5057891;28;46385;-77
2022/12/12 01:01:16;;;;;;;;;34.50;33.25;;;;;0.20;71.22;100060.22;5058449;28;45456;-76
2022/12/12 01:03:42;;;;;;;;;27.75;27.50;;;;;0.41;71.18;100089.41;5060090;28;45235;-76
2022/12/12 01:06:08;;;;;;;;;26.75;24.25;;;;;0.42;70.67;100098.91;5059851;28;45600;-75
2022/12/12 01:08:34;;;;;;;;;36.50;30.25;;;;;0.34;71.15;100079.97;5059077;28;45705;-75
2022/12/12 01:10:59;;;;;;;;;33.00;27.25;;;;;0.33;70.78;100086.88;5058468;28;45331;-75
2022/12/12 01:13:25;;;;;;;;;29.75;29.50;;;;;0.37;71.30;100093.75;5058116;28;45223;-77
2022/12/12 01:15:51;;;;;;;;;30.00;25.25;;;;;0.35;70.82;100074.81;5058191;28;45361;-74
2022/12/12 01:18:17;;;;;;;;;33.50;28.75;;;;;0.39;70.97;100081.69;5057875;28;45340;-76
2022/12/12 01:20:43;;;;;;;;;30.50;30.00;;;;;0.40;71.12;100082.53;5057931;28;45323;-74
2022/12/12 01:23:09;;;;;;;;;33.00;29.00;;;;;0.42;70.49;100089.41;5058325;28;45329;-77
2022/12/12 01:25:35;;;;;;;;;26.50;24.00;;;;;0.32;71.00;100072.25;5060643;28;45299;-78
2022/12/12 01:28:00;;;;;;;;;33.25;31.50;;;;;0.38;70.68;100086.84;5058384;28;45457;-75
2022/12/12 01:30:26;;;;;;;;;33.50;33.50;;;;;0.42;70.96;100098.91;5057694;28;45407;-74
2022/12/12 01:32:53;;;;;;;;;31.25;31.25;;;;;0.40;70.66;100098.91;5061012;28;45298;-79
2022/12/12 01:35:20;;;;;;;;;29.50;29.00;;;;;0.39;70.54;100096.31;5059664;28;45319;-75
2022/12/12 01:37:45;;;;;;;;;29.25;28.50;;;;;0.37;70.48;100098.94;5060703;28;45536;-75
2022/12/12 01:40:31;;;;;;;;;31.25;30.00;;;;;0.42;70.27;100104.94;5058166;28;45425;-75
2022/12/12 01:42:57;;;;;;;;;31.50;31.50;;;;;0.40;70.16;100106.69;5060298;27;45484;-77
2022/12/12 01:45:56;;;;;;;;;25.25;24.00;;;;;0.42;70.07;100104.06;5074740;28;45414;-77
2022/12/12 01:48:27;;;;;;;;;30.50;30.50;;;;;0.38;70.06;100102.38;5058364;28;45219;-80
2022/12/12 01:50:54;;;;;;;;;32.25;29.25;;;;;0.38;70.55;100099.78;5059275;28;45408;-77
2022/12/12 01:53:20;;;;;;;;;30.25;29.50;;;;;0.40;71.02;100109.28;5059715;28;45367;-76
2022/12/12 01:55:48;;;;;;;;;28.25;27.25;;;;;0.44;70.27;100099.75;5061980;28;45530;-78
2022/12/12 01:58:14;;;;;;;;;28.25;27.75;;;;;0.40;70.29;100093.75;5061287;28;46200;-76
2022/12/12 02:00:40;;;;;;;;;31.00;29.50;;;;;0.49;70.23;100102.31;5061040;28;45262;-78
2022/12/12 02:03:05;;;;;;;;;31.75;28.25;;;;;0.42;70.47;100104.94;5064455;28;45274;-75
2022/12/12 02:05:39;;;;;;;;;32.25;30.25;;;;;0.42;70.18;100102.34;5065624;28;45248;-76
2022/12/12 02:08:06;;;;;;;;;26.25;26.25;;;;;0.34;70.51;100090.31;5064833;28;45333;-75
2022/12/12 02:10:32;;;;;;;;;29.75;28.75;;;;;0.39;70.38;100097.19;5059944;28;45397;-76
2022/12/12 02:13:07;;;;;;;;;27.50;26.00;;;;;0.47;70.35;100104.06;5061604;28;45251;-79
2022/12/12 02:15:57;;;;;;;;;34.25;29.50;;;;;0.48;70.42;100100.59;5058709;28;45453;-73
2022/12/12 02:18:35;;;;;;;;;30.75;28.75;;;;;0.47;70.28;100104.91;5057543;28;46363;-74
2022/12/12 02:21:33;;;;;;;;;28.75;28.25;;;;;0.49;69.87;100099.72;5058455;28;45288;-72
2022/12/12 02:24:36;;;;;;;;;31.25;28.75;;;;;0.47;70.17;100104.91;5057458;28;46706;-73
2022/12/12 02:27:13;;;;;;;;;30.50;30.50;;;;;0.43;69.98;100096.31;5059668;28;45403;-76
2022/12/12 02:30:14;;;;;;;;;31.75;31.00;;;;;0.40;70.15;100103.22;5061337;28;45559;-77
2022/12/12 02:32:52;;;;;;;;;29.75;29.75;;;;;0.37;70.02;100103.25;5049840;28;45397;-76
2022/12/12 02:35:45;;;;;;;;;29.50;26.50;;;;;0.38;70.13;100104.97;5064870;28;45253;-76
2022/12/12 02:38:19;;;;;;;;;34.25;28.75;;;;;0.39;70.35;100110.13;5061028;28;45237;-78
2022/12/12 02:40:55;;;;;;;;;34.50;31.75;;;;;0.38;70.38;100105.84;5059006;28;46333;-75
2022/12/12 02:43:39;;;;;;;;;33.25;29.25;;;;;0.41;70.18;100113.56;5062703;28;45235;-73
2022/12/12 02:46:23;;;;;;;;;24.25;24.25;;;;;0.39;70.06;100106.69;5058888;28;45296;-77
2022/12/12 02:49:08;;;;;;;;;27.25;27.25;;;;;0.38;70.33;100103.25;5058254;28;45349;-79
2022/12/12 02:51:35;;;;;;;;;25.50;25.50;;;;;0.37;70.04;100106.69;5058435;28;45211;-77
2022/12/12 02:54:03;;;;;;;;;32.75;32.75;;;;;0.32;70.15;100090.34;5057052;28;45448;-76
2022/12/12 02:56:53;;;;;;;;;27.50;27.50;;;;;0.38;70.18;100104.97;5058572;28;45348;-77
2022/12/12 02:59:30;;;;;;;;;27.50;24.75;;;;;0.41;70.35;100103.22;5058822;27;45474;-78
2022/12/12 03:02:24;;;;;;;;;27.00;27.00;;;;;0.42;70.19;100104.94;5074577;28;47970;-77
2022/12/12 03:08:34;;;;;;;;;22.25;22.25;;;;;0.45;70.40;100095.44;5059369;28;45224;-71
2022/12/12 03:11:07;;;;;;;;;24.25;24.25;;;;;0.46;70.01;100095.41;5058784;27;45673;-76
2022/12/12 03:13:59;;;;;;;;;21.25;21.25;;;;;0.46;70.01;100095.41;5058263;28;46114;-74
2022/12/12 03:16:28;;;;;;;;;28.50;28.50;;;;;0.46;70.33;100090.25;5058669;28;45505;-75
2022/12/12 03:19:21;;;;;;;;;27.25;27.25;;;;;0.49;70.25;100086.78;5060396;28;45337;-79
2022/12/12 03:22:07;;;;;;;;;24.25;22.75;;;;;0.53;70.31;100091.06;5058352;28;45342;-76
2022/12/12 03:24:44;;;;;;;;;22.75;21.50;;;;;0.33;70.06;100060.13;5062127;28;46028;-74
2022/12/12 03:27:17;;;;;;;;;23.00;22.00;;;;;0.52;69.94;100090.19;5061318;28;45251;-74
2022/12/12 03:29:53;;;;;;;;;26.25;26.25;;;;;0.48;70.67;100079.91;5061089;28;45514;-75
2022/12/12 03:32:25;;;;;;;;;24.25;22.75;;;;;0.54;70.11;100085.03;5060736;28;45349;-73
2022/12/12 03:35:06;;;;;;;;;26.25;26.25;;;;;0.49;69.92;100076.44;5056951;28;46097;-76
2022/12/12 03:37:36;;;;;;;;;28.00;25.50;;;;;0.53;70.16;100085.91;5057112;28;45366;-79
2022/12/12 03:40:07;;;;;;;;;30.25;28.00;;;;;0.53;70.04;100099.72;5056938;27;45402;-77
2022/12/12 03:42:38;;;;;;;;;22.25;22.25;;;;;0.53;70.31;100091.94;5057200;28;45337;-73
2022/12/12 03:45:10;;;;;;;;;30.00;29.75;;;;;0.57;70.22;100096.22;5056555;28;46269;-77
2022/12/12 03:47:44;;;;;;;;;24.25;24.25;;;;;0.60;70.31;100091.91;5060426;28;45430;-79
2022/12/12 03:50:16;;;;;;;;;31.50;30.00;;;;;0.61;69.96;100089.28;5056171;28;45512;-77
2022/12/12 03:53:00;;;;;;;;;27.50;26.25;;;;;0.63;70.06;100091.88;5057882;28;45534;-78
2022/12/12 03:55:38;;;;;;;;;25.00;22.00;;;;;0.64;70.38;100102.22;5063435;28;45403;-78
2022/12/12 03:58:15;;;;;;;;;26.00;24.75;;;;;0.64;70.05;100101.38;5064485;28;45315;-79
2022/12/12 04:00:44;;;;;;;;;31.50;27.50;;;;;0.66;70.30;100102.22;5059291;28;45676;-76
2022/12/12 04:03:19;;;;;;;;;26.50;26.00;;;;;0.68;70.33;100103.91;5059589;28;45212;-74
2022/12/12 04:06:26;;;;;;;;;21.00;21.00;;;;;0.69;70.28;100099.59;5056664;28;46149;-73
2022/12/12 04:15:12;;;;;;;;;26.00;26.00;;;;;0.77;69.92;100109.88;5056364;28;45473;-74
2022/12/12 04:17:51;;;;;;;;;23.50;23.50;;;;;0.62;70.13;100097.94;5055942;28;46303;-73
2022/12/12 04:23:48;;;;;;;;;24.75;24.25;;;;;0.71;69.59;100121.16;5056631;28;45490;-73
2022/12/12 04:26:38;;;;;;;;;28.00;27.25;;;;;0.65;70.20;100119.47;5056625;28;45385;-75
2022/12/12 04:29:23;;;;;;;;;27.25;27.25;;;;;0.72;69.72;100126.31;5054978;28;46476;-77
2022/12/12 04:32:15;;;;;;;;;32.00;30.50;;;;;0.68;70.04;100124.63;5056786;28;45434;-74
2022/12/12 04:35:02;;;;;;;;;24.25;23.25;;;;;0.67;70.02;100125.47;5057193;28;45417;-77
2022/12/12 04:37:52;;;;;;;;;24.00;24.00;;;;;0.71;70.23;100134.09;5056339;28;45321;-77
2022/12/12 04:40:24;;;;;;;;;24.75;20.00;;;;;0.75;70.44;100122.84;5055745;28;46293;-73
2022/12/12 04:42:58;;;;;;;;;44.00;41.25;;;;;0.77;70.28;100128.00;5057626;28;45279;-72
2022/12/12 04:45:29;;;;;;;;;37.25;32.25;;;;;0.74;70.08;100118.56;5058832;28;45330;-71
2022/12/12 04:47:55;;;;;;;;;30.00;28.00;;;;;0.77;69.80;100118.53;5056065;28;45401;-73
2022/12/12 04:50:24;;;;;;;;;24.75;24.00;;;;;0.85;70.02;100126.22;5056918;28;45426;-75
2022/12/12 04:52:54;;;;;;;;;30.50;27.25;;;;;0.85;70.09;100128.81;5056412;28;45329;-73
2022/12/12 04:55:28;;;;;;;;;23.75;23.75;;;;;0.87;70.39;100129.66;5071885;28;45474;-73
2022/12/12 04:57:54;;;;;;;;;28.25;24.75;;;;;0.88;69.67;100126.19;5058462;28;45239;-73
2022/12/12 05:00:22;;;;;;;;;30.00;30.00;;;;;0.85;70.16;100124.50;5059390;28;46252;-73
2022/12/12 05:02:57;;;;;;;;;29.75;29.75;;;;;0.88;69.72;100126.19;5060105;28;45223;-74
2022/12/12 05:05:34;;;;;;;;;29.50;26.75;;;;;0.81;70.15;100120.22;5059072;28;45302;-73
2022/12/12 05:08:06;;;;;;;;;26.50;25.75;;;;;0.83;69.84;100127.97;5061497;28;45318;-74
2022/12/12 05:10:31;;;;;;;;;30.50;28.75;;;;;0.83;69.78;100128.84;5058556;28;45949;-74
2022/12/12 05:12:59;;;;;;;;;34.25;32.00;;;;;0.80;69.78;100115.03;5058463;28;45246;-74
2022/12/12 05:15:27;;;;;;;;;26.25;24.75;;;;;0.85;70.08;100115.88;5058022;28;45421;-72
2022/12/12 05:18:02;;;;;;;;;28.75;26.25;;;;;0.87;69.85;100120.19;5058794;28;45418;-74
2022/12/12 05:20:27;;;;;;;;;29.50;29.50;;;;;0.89;69.56;100132.25;5060842;28;46294;-80
2022/12/12 05:22:52;;;;;;;;;31.00;30.50;;;;;0.90;69.80;100128.78;5060043;28;45529;-75
2022/12/12 05:25:18;;;;;;;;;36.75;36.75;;;;;0.89;69.84;100132.25;5060137;28;45361;-75
2022/12/12 05:27:43;;;;;;;;;47.00;40.50;;;;;0.82;69.67;100127.13;5059502;28;45292;-78
2022/12/12 05:30:09;;;;;;;;;36.50;33.50;;;;;0.89;69.93;100132.25;5059519;28;46146;-77
2022/12/12 05:32:34;;;;;;;;;32.75;31.50;;;;;0.82;69.51;100116.75;5059510;28;45436;-79
2022/12/12 05:35:00;;;;;;;;;31.50;31.00;;;;;0.80;69.61;100113.31;5059264;28;45457;-80
2022/12/12 05:37:27;;;;;;;;;31.50;31.00;;;;;0.87;69.64;100116.72;5059780;28;45722;-78
2022/12/12 05:39:52;;;;;;;;;32.75;31.75;;;;;0.87;69.98;100106.34;5058509;28;46086;-74
2022/12/12 05:42:17;;;;;;;;;33.75;31.00;;;;;0.93;69.59;100115.81;5064398;28;45229;-78
2022/12/12 05:44:43;;;;;;;;;39.25;33.25;;;;;0.92;69.51;100108.91;5065497;28;45231;-76
2022/12/12 05:47:08;;;;;;;;;35.25;35.25;;;;;0.92;69.90;100109.75;5064673;28;45232;-73
2022/12/12 05:49:34;;;;;;;;;41.25;37.50;;;;;0.92;69.81;100106.34;5062226;28;45583;-72
2022/12/12 05:51:59;;;;;;;;;34.00;32.00;;;;;0.93;70.27;100108.88;5059197;28;45327;-74
2022/12/12 05:54:26;;;;;;;;;37.25;35.75;;;;;0.90;69.73;100113.25;5059222;28;45220;-75
2022/12/12 05:56:51;;;;;;;;;35.00;34.75;;;;;0.93;69.37;100115.81;5060422;28;46027;-74
2022/12/12 05:59:17;;;;;;;;;33.75;33.75;;;;;0.81;69.59;100107.28;5058691;28;46055;-73
2022/12/12 06:01:42;;;;;;;;;33.50;33.50;;;;;0.87;69.92;100117.59;5058982;28;46185;-72
2022/12/12 06:04:07;;;;;;;;;28.25;27.25;;;;;0.86;69.86;100109.81;5073017;28;45409;-76
2022/12/12 06:06:33;;;;;;;;;32.50;32.50;;;;;0.82;69.65;100110.72;5068909;28;45513;-76
2022/12/12 06:08:58;;;;;;;;;32.25;32.25;;;;;0.88;69.81;100123.59;5078524;27;47911;-75
2022/12/12 06:11:24;;;;;;;;;33.25;33.25;;;;;0.87;70.00;100116.72;5056849;28;45336;-73
2022/12/12 06:13:49;;;;;;;;;37.00;35.75;;;;;0.92;69.67;100132.22;5059022;28;45468;-74
2022/12/12 06:16:17;;;;;;;;;35.50;35.50;;;;;0.92;69.87;100135.66;5075861;27;45484;-74
2022/12/12 06:18:43;;;;;;;;;34.25;34.25;;;;;0.92;70.10;100133.06;5071173;28;46280;-75
2022/12/12 06:21:11;;;;;;;;;38.25;36.75;;;;;0.94;69.45;100130.47;5058534;28;45205;-74
2022/12/12 06:23:38;;;;;;;;;27.50;26.25;;;;;0.93;69.45;100133.94;5060030;28;45485;-73
2022/12/12 06:26:05;;;;;;;;;34.75;33.25;;;;;0.92;69.60;100133.06;5076712;27;45273;-70
2022/12/12 06:28:31;;;;;;;;;28.75;28.75;;;;;0.93;69.94;100132.19;5077052;28;45489;-72
2022/12/12 06:30:56;;;;;;;;;36.25;34.25;;;;;0.99;69.89;100137.34;5075631;27;45535;-72
2022/12/12 06:33:21;;;;;;;;;37.50;36.75;;;;;0.94;70.19;100120.97;5076336;27;45330;-70
2022/12/12 06:35:59;;;;;;;;;31.75;31.75;;;;;0.96;69.63;100127.00;5077163;28;45618;-72
2022/12/12 06:38:24;;;;;;;;;36.00;33.00;;;;;0.98;69.42;100143.38;5075798;28;45703;-70
2022/12/12 06:40:49;;;;;;;;;34.25;34.00;;;;;0.92;69.48;100133.06;5076973;28;45250;-71
2022/12/12 06:43:15;;;;;;;;;31.00;29.50;;;;;0.99;69.76;100134.75;5077777;28;45276;-72
2022/12/12 06:45:40;;;;;;;;;34.50;34.50;;;;;0.96;69.54;100131.34;5075134;28;46046;-73
2022/12/12 06:48:05;;;;;;;;;33.50;33.00;;;;;0.79;69.83;100106.44;5057389;28;45366;-69
2022/12/12 06:50:31;;;;;;;;;32.50;32.00;;;;;0.96;69.55;100133.91;5056677;28;45291;-71
2022/12/12 06:52:56;;;;;;;;;50.25;43.00;;;;;0.86;69.34;100125.34;5062900;28;45175;-71
2022/12/12 06:55:21;;;;;;;;;42.75;36.75;;;;;0.95;69.22;100137.38;5061730;28;45554;-69
2022/12/12 06:57:47;;;;;;;;;30.75;30.75;;;;;0.54;69.46;100079.84;5075073;28;45373;-66
2022/12/12 07:00:13;;;;;;;;;31.50;31.50;;;;;0.84;69.16;100127.09;5076341;27;45302;-67
2022/12/12 07:02:38;;;;;;;;;31.75;31.75;;;;;0.85;69.38;100134.88;5076472;27;45392;-66
2022/12/12 07:05:03;;;;;;;;;40.50;33.75;;;;;0.87;69.36;100140.00;5075634;28;45650;-68
2022/12/12 07:07:29;;;;;;;;;31.75;31.50;;;;;0.85;69.60;100131.41;5077550;27;45489;-70
2022/12/12 07:09:54;;;;;;;;;34.75;33.00;;;;;0.85;69.38;100132.28;5074134;28;46004;-65
2022/12/12 07:12:19;;;;;;;;;42.25;40.00;;;;;0.83;69.44;100125.38;5075865;27;45464;-67
2022/12/12 07:14:45;;;;;;;;;31.75;31.00;;;;;0.82;69.74;100123.66;5076434;27;45402;-68
2022/12/12 07:17:10;;;;;;;;;54.75;46.50;;;;;0.77;69.76;100118.53;5084346;27;45435;-68
2022/12/12 07:19:35;;;;;;;;;46.50;40.25;;;;;0.83;69.74;100123.66;5083313;27;45375;-70
2022/12/12 07:22:01;;;;;;;;;33.00;32.50;;;;;0.72;69.28;100117.69;5078042;28;45452;-65
2022/12/12 07:24:26;;;;;;;;;39.75;37.25;;;;;0.79;69.56;100146.97;5076681;27;45279;-66
2022/12/12 07:26:52;;;;;;;;;45.75;40.25;;;;;0.67;69.41;100140.19;5077032;27;46784;-65
2022/12/12 07:29:17;;;;;;;;;42.25;39.50;;;;;0.76;69.62;100153.06;5075994;28;45421;-66
2022/12/12 07:31:42;;;;;;;;;41.25;40.25;;;;;0.80;69.78;100153.88;5076906;27;45300;-62
2022/12/12 07:34:08;;;;;;;;;36.00;35.25;;;;;0.81;69.46;100164.25;5096589;27;45204;-65
2022/12/12 07:36:33;;;;;;;;;35.50;35.00;;;;;0.77;69.51;100169.44;5104221;27;45714;-63
2022/12/12 07:38:58;;;;;;;;;37.25;35.00;;;;;0.67;69.22;100159.13;5088464;27;45211;-65
2022/12/12 07:41:24;;;;;;;;;43.25;40.00;;;;;0.68;69.27;100155.69;5077444;28;45358;-67
2022/12/12 07:43:49;;;;;;;;;43.50;37.50;;;;;0.70;69.78;100156.53;5078713;27;45373;-67
2022/12/12 07:46:18;;;;;;;;;41.75;39.50;;;;;0.79;69.64;100163.41;5076369;27;46922;-67
2022/12/12 07:48:44;;;;;;;;;37.50;36.25;;;;;0.85;69.81;100162.47;5075943;27;45445;-68
2022/12/12 07:51:11;;;;;;;;;49.50;41.25;;;;;0.85;69.37;100163.34;5093573;27;45431;-71
2022/12/12 07:53:36;;;;;;;;;35.75;33.50;;;;;0.85;68.97;100162.47;5096154;27;45572;-66
2022/12/12 07:56:06;;;;;;;;;43.50;38.50;;;;;0.84;69.16;100161.63;5094360;27;48166;-67
2022/12/12 07:58:32;;;;;;;;;43.75;40.25;;;;;0.64;69.15;100119.50;5095941;27;45409;-68
2022/12/12 08:00:57;;;;;;;;;41.50;38.50;;;;;0.89;69.11;100169.34;5088876;27;45354;-71
2022/12/12 08:03:22;;;;;;;;;38.00;37.00;;;;;0.85;69.14;100163.34;5075393;27;45696;-70
2022/12/12 08:05:48;;;;;;;;;38.50;37.50;;;;;0.86;69.37;100174.56;5072738;27;45651;-72
2022/12/12 08:08:13;;;;;;;;;45.50;41.00;;;;;0.88;69.29;100178.00;5076133;27;45354;-72
2022/12/12 08:10:39;;;;;;;;;32.50;32.50;;;;;0.91;69.40;100175.38;5075223;27;45423;-72
2022/12/12 08:13:05;;;;;;;;;38.25;37.50;;;;;0.87;69.12;100179.75;5075021;28;45450;-72
2022/12/12 08:15:31;;;;;;;;;47.00;41.75;;;;;0.82;69.64;100180.63;5075064;27;45327;-72
2022/12/12 08:17:57;;;;;;;;;48.25;42.75;;;;;0.87;69.18;100190.09;5075245;27;45243;-73
2022/12/12 08:20:22;;;;;;;;;34.25;34.25;;;;;0.82;69.13;100189.25;5075605;27;45429;-72
2022/12/12 08:22:48;;;;;;;;;51.25;42.00;;;;;0.90;68.81;100186.59;5076231;27;45624;-71
2022/12/12 08:25:13;;;;;;;;;41.50;37.75;;;;;0.92;69.26;100184.88;5075677;27;45409;-72
2022/12/12 08:27:39;;;;;;;;;44.75;38.25;;;;;0.92;69.04;100186.63;5075134;27;49808;-71
2022/12/12 08:30:04;;;;;;;;;48.75;43.25;;;;;0.94;69.09;100188.31;5076559;27;45424;-72
2022/12/12 08:32:30;;;;;;;;;42.50;38.00;;;;;0.95;68.63;100194.34;5076219;28;45210;-70
2022/12/12 08:34:57;;;;;;;;;42.00;39.00;;;;;0.93;68.88;100196.09;5073032;27;47469;-72
2022/12/12 08:37:23;;;;;;;;;40.50;37.75;;;;;0.92;69.08;100202.16;5077295;27;45473;-70
2022/12/12 08:39:48;;;;;;;;;40.25;34.50;;;;;0.91;68.81;100192.66;5078634;27;45347;-71
2022/12/12 08:42:14;;;;;;;;;47.75;44.00;;;;;0.89;68.53;100197.00;5078936;27;45305;-69
2022/12/12 08:44:39;;;;;;;;;39.25;37.75;;;;;0.90;68.22;100206.47;5079187;28;48339;-73
2022/12/12 08:47:05;;;;;;;;;74.00;55.75;;;;;0.90;68.22;100212.50;5079702;27;45337;-72
2022/12/12 08:49:30;;;;;;;;;43.75;37.25;;;;;0.90;68.20;100202.16;5079664;28;45414;-72
2022/12/12 08:51:56;;;;;;;;;44.00;39.00;;;;;0.85;67.88;100209.09;5079692;27;45329;-72
2022/12/12 08:54:21;;;;;;;;;35.00;35.00;;;;;0.87;68.15;100228.94;5079404;27;45322;-72
2022/12/12 08:56:47;;;;;;;;;39.00;37.25;;;;;0.87;67.88;100228.06;5078906;27;45239;-71
2022/12/12 08:59:12;;;;;;;;;35.75;33.75;;;;;0.87;68.12;100221.16;5079602;27;45279;-71
2022/12/12 09:01:38;;;;;;;;;40.50;39.00;;;;;0.82;67.82;100219.47;5065454;27;45338;-72
2022/12/12 09:04:04;;;;;;;;;40.25;38.50;;;;;0.90;68.16;100217.69;5058319;28;45406;-72
2022/12/12 09:06:29;;;;;;;;;39.50;36.50;;;;;0.91;67.68;100205.63;5058512;28;45506;-71
2022/12/12 09:08:56;;;;;;;;;43.00;38.00;;;;;1.01;67.98;100221.06;5059506;28;45350;-70
2022/12/12 09:11:22;;;;;;;;;46.25;41.50;;;;;0.97;67.54;100221.97;5059081;28;45617;-71
2022/12/12 09:13:47;;;;;;;;;36.00;34.75;;;;;0.95;67.98;100228.88;5058582;28;46324;-71
2022/12/12 09:16:13;;;;;;;;;38.00;36.00;;;;;0.91;67.51;100221.16;5058346;28;45466;-71
2022/12/12 09:18:39;;;;;;;;;38.75;37.50;;;;;0.85;67.33;100214.25;5058888;28;45347;-69
2022/12/12 09:21:05;;;;;;;;;38.00;37.25;;;;;0.95;67.71;100218.50;5057991;28;45321;-71
2022/12/12 09:23:31;;;;;;;;;45.00;41.25;;;;;0.99;67.40;100221.97;5057856;28;46093;-72
2022/12/12 09:25:57;;;;;;;;;41.25;37.75;;;;;0.99;67.05;100222.81;5057786;28;45447;-70
2022/12/12 09:28:24;;;;;;;;;50.75;42.75;;;;;1.01;67.35;100221.06;5057205;28;45296;-71
2022/12/12 09:30:50;;;;;;;;;43.75;40.25;;;;;1.03;66.82;100218.47;5058332;28;45243;-71
2022/12/12 09:33:16;;;;;;;;;37.00;32.00;;;;;0.99;66.92;100206.41;5057626;28;46506;-72
2022/12/12 09:35:43;;;;;;;;;48.50;43.75;;;;;1.01;67.42;100210.69;5057883;28;45261;-72
2022/12/12 09:38:08;;;;;;;;;45.75;40.00;;;;;1.02;67.32;100206.41;5057777;28;45312;-71
2022/12/12 09:40:59;;;;;;;;;46.75;42.00;;;;;1.01;67.58;100215.88;5058223;28;45385;-71
2022/12/12 09:43:32;;;;;;;;;44.75;40.00;;;;;1.02;66.97;100214.16;5055269;28;46176;-72
2022/12/12 09:45:59;;;;;;;;;48.75;43.75;;;;;1.04;67.13;100215.03;5058446;28;45259;-71
2022/12/12 09:48:35;;;;;;;;;41.00;39.00;;;;;1.07;66.84;100214.16;5057042;28;45257;-70
2022/12/12 09:51:00;;;;;;;;;45.75;36.25;;;;;1.08;67.75;100216.72;5058770;28;45268;-70
2022/12/12 09:53:27;;;;;;;;;40.25;39.00;;;;;1.12;66.93;100209.78;5057320;28;46318;-74
2022/12/12 09:56:15;;;;;;;;;50.00;41.50;;;;;1.20;66.92;100204.53;5056708;28;45394;-71
2022/12/12 09:59:10;;;;;;;;;91.33;82.00;;;;;1.28;67.33;100202.75;5057848;28;45414;-72
2022/12/12 10:01:46;;;;;;;;;49.50;41.75;;;;;1.35;67.42;100200.97;5059132;28;45344;-72
2022/12/12 10:04:26;;;;;;;;;45.75;38.75;;;;;1.42;66.84;100190.53;5058880;28;46355;-71
2022/12/12 10:07:00;;;;;;;;;60.00;47.50;;;;;1.41;67.06;100183.63;5057505;28;45312;-70
2022/12/12 10:09:37;;;;;;;;;55.00;42.00;;;;;1.57;67.34;100191.25;5056849;28;45374;-67
2022/12/12 10:12:06;;;;;;;;;40.00;38.25;;;;;1.63;66.54;100198.13;5057495;28;45450;-72
2022/12/12 10:14:37;;;;;;;;;45.75;39.00;;;;;1.65;66.13;100193.78;5056763;28;46119;-72
2022/12/12 10:17:07;;;;;;;;;43.75;39.00;;;;;1.64;65.89;100187.78;5056847;28;45437;-72
2022/12/12 10:19:45;;;;;;;;;46.25;42.00;;;;;1.63;65.85;100178.28;5056865;28;45270;-72
2022/12/12 10:22:20;;;;;;;;;44.25;41.25;;;;;1.64;66.03;100172.22;5056685;28;45350;-70
2022/12/12 10:24:54;;;;;;;;;37.50;35.75;;;;;1.70;65.40;100171.28;5058459;28;45287;-73
2022/12/12 10:27:22;;;;;;;;;48.50;42.00;;;;;1.70;65.78;100166.09;5056875;28;45448;-72
2022/12/12 10:29:48;;;;;;;;;39.25;37.25;;;;;1.74;65.52;100170.38;5057424;28;45396;-71
2022/12/12 10:32:13;;;;;;;;;44.50;38.75;;;;;1.76;64.73;100166.03;5056853;28;45613;-73
2022/12/12 10:34:58;;;;;;;;;46.75;42.50;;;;;1.78;65.21;100169.47;5056568;28;46150;-73
2022/12/12 10:37:32;;;;;;;;;62.00;50.50;;;;;1.80;65.27;100165.13;5056978;28;45416;-73
2022/12/12 10:40:03;;;;;;;;;51.00;43.00;;;;;1.83;65.22;100166.81;5056789;28;45492;-70
2022/12/12 10:42:49;;;;;;;;;48.00;43.00;;;;;1.83;64.85;100185.81;5056804;28;45609;-72
2022/12/12 10:45:33;;;;;;;;;47.25;40.50;;;;;1.83;64.79;100178.03;5055978;28;45418;-73
2022/12/12 10:47:59;;;;;;;;;42.75;39.00;;;;;1.83;65.36;100180.63;5057171;28;45339;-74
2022/12/12 10:50:54;;;;;;;;;47.50;42.25;;;;;1.85;64.58;100178.88;5058794;28;45326;-72
2022/12/12 10:53:20;;;;;;;;;46.50;40.50;;;;;1.82;64.27;100178.91;5058110;28;45259;-73
2022/12/12 10:55:52;;;;;;;;;53.25;42.75;;;;;1.85;65.04;100171.09;5057377;28;45347;-72
2022/12/12 10:58:18;;;;;;;;;56.00;47.00;;;;;1.78;64.33;100156.50;5071933;28;45283;-71
2022/12/12 11:00:47;;;;;;;;;62.00;52.50;;;;;1.79;64.17;100159.97;5056239;28;45268;-70
2022/12/12 11:03:21;;;;;;;;;57.75;46.25;;;;;1.81;64.64;100158.22;5056549;28;45435;-71
2022/12/12 11:05:47;;;;;;;;;49.50;42.75;;;;;1.74;63.74;100149.63;5056177;28;46073;-71
2022/12/12 11:08:21;;;;;;;;;49.75;42.25;;;;;1.64;64.53;100150.59;5056933;28;45385;-71
2022/12/12 11:11:20;;;;;;;;;65.75;52.50;;;;;1.55;63.64;100138.56;5056457;28;45409;-71
2022/12/12 11:13:50;;;;;;;;;51.25;44.00;;;;;1.54;64.92;100132.53;5057519;28;45253;-71
2022/12/12 11:16:28;;;;;;;;;49.25;43.50;;;;;1.54;64.19;100131.66;5055365;28;46295;-71
2022/12/12 11:19:06;;;;;;;;;57.75;50.00;;;;;1.51;64.92;100124.78;5055823;28;45294;-69
2022/12/12 11:21:34;;;;;;;;;58.75;47.00;;;;;1.54;64.71;100117.00;5057035;28;45395;-71
2022/12/12 11:24:07;;;;;;;;;35.50;33.50;;;;;1.55;64.67;100110.94;5057665;28;45468;-70
2022/12/12 11:26:40;;;;;;;;;56.25;47.75;;;;;1.53;64.58;100104.03;5055583;28;48461;-72
2022/12/12 11:29:06;;;;;;;;;97.33;86.00;;;;;1.43;64.76;100085.13;5055922;28;45393;-72
2022/12/12 11:31:34;;;;;;;;;77.50;60.25;;;;;1.36;65.02;100075.72;5056313;28;45311;-71
2022/12/12 11:34:03;;;;;;;;;67.25;55.25;;;;;1.33;64.61;100065.38;5038545;28;45329;-71
2022/12/12 11:36:36;;;;;;;;;65.25;51.50;;;;;1.32;65.48;100069.69;5055897;28;45514;-71
2022/12/12 11:39:20;;;;;;;;;59.25;49.75;;;;;1.34;64.98;100080.06;5056926;28;45197;-72
2022/12/12 11:41:58;;;;;;;;;46.00;40.00;;;;;1.28;64.78;100070.59;5056768;28;45320;-71
2022/12/12 11:44:25;;;;;;;;;58.50;49.50;;;;;1.26;65.08;100073.22;5056839;28;45521;-72